createdAt,value
2023-05-24T00:02:14.742Z,13.40
2023-05-24T00:04:45.134Z,13.36
2023-05-24T00:07:13.873Z,13.30
2023-05-24T00:09:42.436Z,13.24
2023-05-24T00:12:11.080Z,13.20
2023-05-24T00:14:39.371Z,13.15
2023-05-24T00:17:07.999Z,13.10
2023-05-24T00:19:39.270Z,13.07
2023-05-24T00:22:07.870Z,13.04
2023-05-24T00:24:36.139Z,13.02
2023-05-24T00:27:04.782Z,13.01
2023-05-24T00:29:33.483Z,12.97
2023-05-24T00:32:02.282Z,12.94
2023-05-24T00:34:31.660Z,12.90
2023-05-24T00:37:01.349Z,12.89
2023-05-24T00:39:29.885Z,12.86
2023-05-24T00:41:58.529Z,12.85
2023-05-24T00:44:27.385Z,12.81
2023-05-24T00:46:56.196Z,12.78
2023-05-24T00:49:25.195Z,12.74
2023-05-24T00:51:55.005Z,12.72
2023-05-24T00:54:26.273Z,12.72
2023-05-24T00:56:56.086Z,12.69
2023-05-24T00:59:28.171Z,12.66
2023-05-24T01:01:56.573Z,12.62
2023-05-24T01:04:25.928Z,12.57
2023-05-24T01:07:10.971Z,12.59
2023-05-24T01:09:56.717Z,12.57
2023-05-24T01:12:34.161Z,12.53
2023-05-24T01:15:16.656Z,12.52
2023-05-24T01:17:55.761Z,12.49
2023-05-24T01:20:25.778Z,12.45
2023-05-24T01:23:16.086Z,12.45
2023-05-24T01:26:01.780Z,12.41
2023-05-24T01:28:34.746Z,12.35
2023-05-24T01:31:03.786Z,12.32
2023-05-24T01:33:32.173Z,12.30
2023-05-24T01:36:00.795Z,12.29
2023-05-24T01:38:29.346Z,12.28
2023-05-24T01:41:02.275Z,12.27
2023-05-24T01:43:40.499Z,12.26
2023-05-24T01:46:29.675Z,12.24
2023-05-24T01:49:10.392Z,12.21
2023-05-24T01:51:49.661Z,12.17
2023-05-24T01:54:24.277Z,12.15
2023-05-24T01:56:55.514Z,12.14
2023-05-24T01:59:27.168Z,12.13
2023-05-24T02:01:55.845Z,12.11
2023-05-24T02:04:25.204Z,12.12
2023-05-24T02:06:53.748Z,12.14
2023-05-24T02:09:22.340Z,12.15
2023-05-24T02:11:51.483Z,12.18
2023-05-24T02:14:20.505Z,12.22
2023-05-24T02:16:50.809Z,12.27
2023-05-24T02:19:21.457Z,12.29
2023-05-24T02:21:49.718Z,12.30
2023-05-24T02:24:18.680Z,12.30
2023-05-24T02:26:47.285Z,12.29
2023-05-24T02:29:16.459Z,12.31
2023-05-24T02:31:45.061Z,12.27
2023-05-24T02:34:14.685Z,12.27
2023-05-24T02:36:43.578Z,12.25
2023-05-24T02:39:12.130Z,12.26
2023-05-24T02:41:41.195Z,12.23
2023-05-24T02:44:09.815Z,12.23
2023-05-24T02:46:38.602Z,12.22
2023-05-24T02:49:07.206Z,12.20
2023-05-24T02:51:37.037Z,12.18
2023-05-24T02:54:05.688Z,12.16
2023-05-24T02:56:34.659Z,12.16
2023-05-24T02:59:03.959Z,12.12
2023-05-24T03:01:33.917Z,12.07
2023-05-24T03:04:02.624Z,12.02
2023-05-24T03:06:32.624Z,12.01
2023-05-24T03:09:02.340Z,12.00
2023-05-24T03:11:31.237Z,11.97
2023-05-24T03:13:59.798Z,11.96
2023-05-24T03:16:28.228Z,11.94
2023-05-24T03:18:56.848Z,11.92
2023-05-24T03:21:25.527Z,11.91
2023-05-24T03:23:54.224Z,11.92
2023-05-24T03:26:23.844Z,11.92
2023-05-24T03:28:54.321Z,11.90
2023-05-24T03:31:28.026Z,11.91
2023-05-24T03:33:57.057Z,11.90
2023-05-24T03:36:26.187Z,11.87
2023-05-24T03:38:54.930Z,11.88
2023-05-24T03:41:26.167Z,11.91
2023-05-24T03:43:54.944Z,11.91
2023-05-24T03:46:23.803Z,11.90
2023-05-24T03:48:52.615Z,11.90
2023-05-24T03:51:23.543Z,11.88
2023-05-24T03:53:52.160Z,11.90
2023-05-24T03:56:20.692Z,11.91
2023-05-24T03:58:50.484Z,11.88
2023-05-24T04:01:32.164Z,11.86
2023-05-24T04:04:02.505Z,11.84
2023-05-24T04:06:31.188Z,11.83
2023-05-24T04:09:01.934Z,11.80
2023-05-24T04:11:32.419Z,11.76
2023-05-24T04:14:02.021Z,11.75
2023-05-24T04:16:34.101Z,11.71
2023-05-24T04:19:04.307Z,11.69
2023-05-24T04:21:33.314Z,11.67
2023-05-24T04:24:03.386Z,11.63
2023-05-24T04:26:33.830Z,11.62
2023-05-24T04:29:03.756Z,11.63
2023-05-24T04:31:34.159Z,11.60
2023-05-24T04:34:03.083Z,11.58
2023-05-24T04:36:33.931Z,11.58
2023-05-24T04:39:05.323Z,11.59
2023-05-24T04:41:35.351Z,11.59
2023-05-24T04:44:05.835Z,11.61
2023-05-24T04:46:36.097Z,11.59
2023-05-24T04:49:05.705Z,11.59
2023-05-24T04:51:34.556Z,11.61
2023-05-24T04:54:08.634Z,11.62
2023-05-24T04:56:38.484Z,11.63
2023-05-24T04:59:09.892Z,11.63
2023-05-24T05:01:38.562Z,11.65
2023-05-24T05:04:07.974Z,11.69
2023-05-24T05:06:38.843Z,11.70
2023-05-24T05:09:09.465Z,11.69
2023-05-24T05:11:38.270Z,11.70
2023-05-24T05:14:09.512Z,11.72
2023-05-24T05:16:38.386Z,11.71
2023-05-24T05:19:06.991Z,11.67
2023-05-24T05:21:36.419Z,11.65
2023-05-24T05:24:05.155Z,11.65
2023-05-24T05:26:33.482Z,11.66
2023-05-24T05:29:02.134Z,11.68
2023-05-24T05:31:31.850Z,11.68
2023-05-24T05:34:00.383Z,11.68
2023-05-24T05:36:28.958Z,11.71
2023-05-24T05:38:57.557Z,11.72
2023-05-24T05:41:26.145Z,11.73
2023-05-24T05:43:54.720Z,11.73
2023-05-24T05:46:23.363Z,11.72
2023-05-24T05:48:52.975Z,11.75
2023-05-24T05:51:21.594Z,11.76
2023-05-24T05:53:50.154Z,11.79
2023-05-24T05:56:18.655Z,11.81
2023-05-24T05:58:47.238Z,11.84
2023-05-24T06:01:16.757Z,11.86
2023-05-24T06:03:45.676Z,11.87
2023-05-24T06:06:15.613Z,11.90
2023-05-24T06:08:43.870Z,11.90
2023-05-24T06:11:12.479Z,11.91
2023-05-24T06:13:41.010Z,11.95
2023-05-24T06:16:10.026Z,11.98
2023-05-24T06:18:38.602Z,12.01
2023-05-24T06:21:10.480Z,12.03
2023-05-24T06:23:40.235Z,12.04
2023-05-24T06:26:09.877Z,12.05
2023-05-24T06:28:38.462Z,12.09
2023-05-24T06:31:07.235Z,12.13
2023-05-24T06:33:37.767Z,12.19
2023-05-24T06:36:06.941Z,12.25
2023-05-24T06:38:36.010Z,12.31
2023-05-24T06:41:06.714Z,12.33
2023-05-24T06:43:35.257Z,12.34
2023-05-24T06:46:03.757Z,12.39
2023-05-24T06:48:32.401Z,12.44
2023-05-24T06:51:00.982Z,12.47
2023-05-24T06:53:29.551Z,12.51
2023-05-24T06:55:58.963Z,12.55
2023-05-24T06:58:28.692Z,12.59
2023-05-24T07:00:57.768Z,12.63
2023-05-24T07:03:26.413Z,12.68
2023-05-24T07:05:54.957Z,12.70
2023-05-24T07:08:23.512Z,12.72
2023-05-24T07:10:52.339Z,12.76
2023-05-24T07:13:21.070Z,12.81
2023-05-24T07:15:50.965Z,12.87
2023-05-24T07:18:19.568Z,12.92
2023-05-24T07:20:48.181Z,12.98
2023-05-24T07:23:16.829Z,13.05
2023-05-24T07:25:45.525Z,13.13
2023-05-24T07:28:14.236Z,13.24
2023-05-24T07:30:42.789Z,13.41
2023-05-24T07:33:12.500Z,13.69
2023-05-24T07:35:41.813Z,14.21
2023-05-24T07:38:11.626Z,14.81
2023-05-24T07:40:40.363Z,15.42
2023-05-24T07:43:08.995Z,16.02
2023-05-24T07:45:37.558Z,16.56
2023-05-24T07:48:06.092Z,17.09
2023-05-24T07:50:36.153Z,17.52
2023-05-24T07:53:05.281Z,17.88
2023-05-24T07:55:33.987Z,18.22
2023-05-24T07:58:02.515Z,18.61
2023-05-24T08:00:31.073Z,18.81
2023-05-24T08:02:59.697Z,19.02
2023-05-24T08:05:28.261Z,19.23
2023-05-24T08:07:58.253Z,19.38
2023-05-24T08:10:27.504Z,19.32
2023-05-24T08:12:56.153Z,19.33
2023-05-24T08:15:24.908Z,19.41
2023-05-24T08:17:53.507Z,19.51
2023-05-24T08:20:22.184Z,19.53
2023-05-24T08:22:51.261Z,19.48
2023-05-24T08:25:21.048Z,19.49
2023-05-24T08:27:49.386Z,19.48
2023-05-24T08:30:18.409Z,19.50
2023-05-24T08:32:47.015Z,19.57
2023-05-24T08:35:20.186Z,19.59
2023-05-24T08:37:49.933Z,19.41
2023-05-24T08:40:20.202Z,19.43
2023-05-24T08:42:50.930Z,19.57
2023-05-24T08:45:22.368Z,19.54
2023-05-24T08:47:52.773Z,19.53
2023-05-24T08:50:22.243Z,19.79
2023-05-24T08:52:52.279Z,19.98
2023-05-24T08:55:22.570Z,20.07
2023-05-24T08:57:51.590Z,20.13
2023-05-24T09:00:21.225Z,20.29
2023-05-24T09:02:50.324Z,20.52
2023-05-24T09:05:21.825Z,20.82
2023-05-24T09:07:51.413Z,21.07
2023-05-24T09:10:23.418Z,21.22
2023-05-24T09:12:58.496Z,21.55
2023-05-24T09:15:28.100Z,21.67
2023-05-24T09:17:56.636Z,21.37
2023-05-24T09:20:25.374Z,21.18
2023-05-24T09:22:54.434Z,21.14
2023-05-24T09:25:24.107Z,21.29
2023-05-24T09:27:53.358Z,21.37
2023-05-24T09:30:22.478Z,21.28
2023-05-24T09:32:59.038Z,21.01
2023-05-24T09:35:28.201Z,20.69
2023-05-24T09:37:59.638Z,20.40
2023-05-24T09:40:30.049Z,20.14
2023-05-24T09:43:05.901Z,20.03
2023-05-24T09:45:34.591Z,20.28
2023-05-24T09:48:11.464Z,20.70
2023-05-24T09:50:40.416Z,21.21
2023-05-24T09:53:09.476Z,21.63
2023-05-24T09:55:39.564Z,21.82
2023-05-24T09:58:09.703Z,21.96
2023-05-24T10:00:41.533Z,22.24
2023-05-24T10:06:02.079Z,22.71
2023-05-24T10:08:30.726Z,22.90
2023-05-24T10:11:01.561Z,22.97
2023-05-24T10:13:30.523Z,23.18
2023-05-24T10:15:59.142Z,23.45
2023-05-24T10:18:27.786Z,23.57
2023-05-24T10:20:58.101Z,23.64
2023-05-24T10:23:32.349Z,23.67
2023-05-24T10:26:08.333Z,23.76
2023-05-24T10:28:44.239Z,23.95
2023-05-24T10:31:16.702Z,23.91
2023-05-24T10:33:48.406Z,23.81
2023-05-24T10:36:17.720Z,23.74
2023-05-24T10:38:48.305Z,23.84
2023-05-24T10:41:20.132Z,24.15
2023-05-24T10:41:46.394Z,22.57
2023-05-24T10:44:07.277Z,24.25
2023-05-24T10:46:38.325Z,24.36
2023-05-24T10:49:07.601Z,24.31
2023-05-24T10:51:38.228Z,24.39
2023-05-24T10:54:15.781Z,24.42
2023-05-24T10:56:48.186Z,24.65
2023-05-24T10:59:34.674Z,24.97
2023-05-24T11:02:04.208Z,25.12
2023-05-24T11:04:35.115Z,25.18
2023-05-24T11:07:05.680Z,25.26
2023-05-24T11:09:34.936Z,25.02
2023-05-24T11:12:08.561Z,24.77
2023-05-24T11:14:40.474Z,24.50
2023-05-24T11:17:09.455Z,24.53
2023-05-24T11:19:40.313Z,24.49
2023-05-24T11:22:09.720Z,24.69
2023-05-24T11:24:38.214Z,24.91
2023-05-24T11:27:08.181Z,25.04
2023-05-24T11:29:43.335Z,25.01
2023-05-24T11:32:15.859Z,25.17
2023-05-24T11:34:45.737Z,25.27
2023-05-24T11:37:17.085Z,25.33
2023-05-24T11:39:52.907Z,25.63
2023-05-24T11:42:24.654Z,25.84
2023-05-24T11:44:55.075Z,26.06
2023-05-24T11:47:24.217Z,26.22
2023-05-24T11:49:53.210Z,26.31
2023-05-24T11:52:22.181Z,26.36
2023-05-24T11:54:51.163Z,26.39
2023-05-24T11:57:27.371Z,26.51
2023-05-24T11:59:56.616Z,26.64
2023-05-24T12:02:25.252Z,26.77
2023-05-24T12:04:54.188Z,26.94
2023-05-24T12:07:25.127Z,26.62
2023-05-24T12:09:53.427Z,26.53
2023-05-24T12:12:30.674Z,26.71
2023-05-24T12:15:02.293Z,26.84
2023-05-24T12:17:30.882Z,26.82
2023-05-24T12:19:59.605Z,26.89
2023-05-24T12:22:30.831Z,27.12
2023-05-24T12:24:59.518Z,27.20
2023-05-24T12:27:31.092Z,27.38
2023-05-24T12:30:09.920Z,27.47
2023-05-24T12:32:38.649Z,27.66
2023-05-24T12:35:09.182Z,27.79
2023-05-24T12:37:37.871Z,28.00
2023-05-24T12:40:20.430Z,28.06
2023-05-24T12:42:53.329Z,28.21
2023-05-24T12:45:25.732Z,28.43
2023-05-24T12:47:54.998Z,28.58
2023-05-24T12:50:25.332Z,28.75
2023-05-24T12:52:54.170Z,28.68
2023-05-24T12:55:25.887Z,28.35
2023-05-24T12:57:56.413Z,28.56
2023-05-24T13:00:27.819Z,28.79
2023-05-24T13:02:58.731Z,29.05
2023-05-24T13:05:28.811Z,29.08
2023-05-24T13:07:58.308Z,28.83
2023-05-24T13:10:27.808Z,28.32
2023-05-24T13:12:57.585Z,27.84
2023-05-24T13:15:27.339Z,27.53
2023-05-24T13:17:56.224Z,27.75
2023-05-24T13:20:25.054Z,27.96
2023-05-24T13:22:53.636Z,28.21
2023-05-24T13:25:22.719Z,28.59
2023-05-24T13:27:51.313Z,28.35
2023-05-24T13:30:27.440Z,27.56
2023-05-24T13:32:56.645Z,26.90
2023-05-24T13:35:25.508Z,26.30
2023-05-24T13:37:55.732Z,26.50
2023-05-24T13:40:25.124Z,26.99
2023-05-24T13:42:53.921Z,27.65
2023-05-24T13:45:23.570Z,28.33
2023-05-24T13:47:53.690Z,28.64
2023-05-24T13:50:23.745Z,28.06
2023-05-24T13:52:52.476Z,27.25
2023-05-24T13:55:21.123Z,26.71
2023-05-24T13:57:52.296Z,26.56
2023-05-24T14:00:24.611Z,26.75
2023-05-24T14:02:53.717Z,26.73
2023-05-24T14:05:27.926Z,26.21
2023-05-24T14:07:57.568Z,25.68
2023-05-24T14:10:26.049Z,25.02
2023-05-24T14:13:12.828Z,24.47
2023-05-24T14:15:46.688Z,24.12
2023-05-24T14:18:15.663Z,24.07
2023-05-24T14:20:44.646Z,24.48
2023-05-24T14:23:13.448Z,24.85
2023-05-24T14:25:42.517Z,25.01
2023-05-24T14:28:12.708Z,24.70
2023-05-24T14:30:41.946Z,24.87
2023-05-24T14:33:11.954Z,25.42
2023-05-24T14:35:40.637Z,25.66
2023-05-24T14:38:11.035Z,25.67
2023-05-24T14:40:40.749Z,25.93
2023-05-24T14:43:10.468Z,25.99
2023-05-24T14:45:41.155Z,25.44
2023-05-24T14:48:12.320Z,24.72
2023-05-24T14:50:42.342Z,24.25
2023-05-24T14:53:12.234Z,23.89
2023-05-24T14:55:43.088Z,23.67
2023-05-24T14:58:12.931Z,24.32
2023-05-24T15:00:42.418Z,24.50
2023-05-24T15:03:14.446Z,25.00
2023-05-24T15:05:43.700Z,25.49
2023-05-24T15:08:12.265Z,26.08
2023-05-24T15:10:43.747Z,26.60
2023-05-24T15:13:12.359Z,26.05
2023-05-24T15:15:41.943Z,25.28
2023-05-24T15:18:10.315Z,24.49
2023-05-24T15:20:40.152Z,23.80
2023-05-24T15:23:10.626Z,23.41
2023-05-24T15:25:39.038Z,23.36
2023-05-24T15:28:07.479Z,23.45
2023-05-24T15:30:35.734Z,23.52
2023-05-24T15:33:04.430Z,24.01
2023-05-24T15:35:32.994Z,24.82
2023-05-24T15:38:02.836Z,25.37
2023-05-24T15:40:31.100Z,25.74
2023-05-24T15:42:59.785Z,25.56
2023-05-24T15:45:28.060Z,25.40
2023-05-24T15:47:56.637Z,25.90
2023-05-24T15:50:42.622Z,25.94
2023-05-24T15:53:13.737Z,25.71
2023-05-24T15:55:41.950Z,25.81
2023-05-24T15:58:13.276Z,26.18
2023-05-24T16:00:42.173Z,26.26
2023-05-24T16:03:15.422Z,26.01
2023-05-24T16:05:44.344Z,25.89
2023-05-24T16:08:16.045Z,26.29
2023-05-24T16:10:44.807Z,26.60
2023-05-24T16:13:13.469Z,26.12
2023-05-24T16:15:42.498Z,25.61
2023-05-24T16:18:11.146Z,25.99
2023-05-24T16:20:39.634Z,26.47
2023-05-24T16:23:08.387Z,26.86
2023-05-24T16:25:38.031Z,26.95
2023-05-24T16:28:06.597Z,27.25
2023-05-24T16:30:37.306Z,27.33
2023-05-24T16:33:06.854Z,27.13
2023-05-24T16:35:35.765Z,27.07
2023-05-24T16:38:04.138Z,27.04
2023-05-24T16:40:32.671Z,27.02
2023-05-24T16:43:02.524Z,26.89
2023-05-24T16:45:31.105Z,26.77
2023-05-24T16:47:59.519Z,26.76
2023-05-24T16:50:28.115Z,26.75
2023-05-24T16:52:56.765Z,26.57
2023-05-24T16:55:25.005Z,26.36
2023-05-24T16:57:53.223Z,25.80
2023-05-24T17:00:23.410Z,25.05
2023-05-24T17:02:52.062Z,24.23
2023-05-24T17:05:20.683Z,23.52
2023-05-24T17:07:48.997Z,22.83
2023-05-24T17:10:17.542Z,22.53
2023-05-24T17:12:47.381Z,22.73
2023-05-24T17:15:15.948Z,22.59
2023-05-24T17:17:45.869Z,22.16
2023-05-24T17:20:15.211Z,21.68
2023-05-24T17:22:43.719Z,21.34
2023-05-24T17:25:12.091Z,21.23
2023-05-24T17:27:40.785Z,20.97
2023-05-24T17:30:10.439Z,20.75
2023-05-24T17:32:39.089Z,20.55
2023-05-24T17:35:10.241Z,20.27
2023-05-24T17:37:39.010Z,20.04
2023-05-24T17:40:09.421Z,19.84
2023-05-24T17:42:38.066Z,19.77
2023-05-24T17:45:07.988Z,19.66
2023-05-24T17:47:36.815Z,19.53
2023-05-24T17:50:06.271Z,19.42
2023-05-24T17:52:36.055Z,19.31
2023-05-24T17:55:05.566Z,19.23
2023-05-24T17:57:34.187Z,19.12
2023-05-24T18:00:03.100Z,18.98
2023-05-24T18:02:31.800Z,18.83
2023-05-24T18:05:00.565Z,18.69
2023-05-24T18:07:30.139Z,18.50
2023-05-24T18:10:00.808Z,18.34
2023-05-24T18:12:29.682Z,18.18
2023-05-24T18:14:58.404Z,18.10
2023-05-24T18:17:27.313Z,17.98
2023-05-24T18:19:55.796Z,17.86
2023-05-24T18:22:24.124Z,17.77
2023-05-24T18:24:52.777Z,17.70
2023-05-24T18:27:22.504Z,17.64
2023-05-24T18:29:50.876Z,17.59
2023-05-24T18:32:19.613Z,17.54
2023-05-24T18:34:48.322Z,17.50
2023-05-24T18:37:17.236Z,17.48
2023-05-24T18:39:45.918Z,17.44
2023-05-24T18:42:14.270Z,17.40
2023-05-24T18:44:43.955Z,17.40
2023-05-24T18:47:12.592Z,17.34
2023-05-24T18:49:42.269Z,17.30
2023-05-24T18:52:10.997Z,17.29
2023-05-24T18:54:39.393Z,17.28
2023-05-24T18:57:08.443Z,17.26
2023-05-24T18:59:38.748Z,17.20
2023-05-24T19:02:08.533Z,17.18
2023-05-24T19:04:36.903Z,17.18
2023-05-24T19:07:06.062Z,17.13
2023-05-24T19:09:36.532Z,17.11
2023-05-24T19:12:05.559Z,17.09
2023-05-24T19:14:33.892Z,17.04
2023-05-24T19:17:02.887Z,17.04
2023-05-24T19:19:32.759Z,17.01
2023-05-24T19:22:01.464Z,16.96
2023-05-24T19:24:29.828Z,16.92
2023-05-24T19:27:00.403Z,16.89
2023-05-24T19:29:29.273Z,16.88
2023-05-24T19:31:57.907Z,16.84
2023-05-24T19:34:28.642Z,16.79
2023-05-24T19:36:58.402Z,16.77
2023-05-24T19:39:27.088Z,16.73
2023-05-24T19:41:55.445Z,16.70
2023-05-24T19:44:24.082Z,16.65
2023-05-24T19:46:52.718Z,16.60
2023-05-24T19:49:21.063Z,16.57
2023-05-24T19:51:49.471Z,16.55
2023-05-24T19:54:19.307Z,16.55
2023-05-24T19:56:50.740Z,16.53
2023-05-24T19:59:19.864Z,16.52
2023-05-24T20:01:48.635Z,16.47
2023-05-24T20:04:17.844Z,16.44
2023-05-24T20:06:46.601Z,16.42
2023-05-24T20:09:18.614Z,16.41
2023-05-24T20:11:48.344Z,16.42
2023-05-24T20:14:17.989Z,16.41
2023-05-24T20:16:46.745Z,16.42
2023-05-24T20:19:15.773Z,16.37
2023-05-24T20:21:44.382Z,16.34
2023-05-24T20:24:12.756Z,16.34
2023-05-24T20:26:41.372Z,16.30
2023-05-24T20:29:11.947Z,16.27
2023-05-24T20:31:41.465Z,16.23
2023-05-24T20:34:10.482Z,16.22
2023-05-24T20:36:40.108Z,16.16
2023-05-24T20:39:10.161Z,16.12
2023-05-24T20:41:38.777Z,16.08
2023-05-24T20:44:07.477Z,16.01
2023-05-24T20:46:37.880Z,15.98
2023-05-24T20:49:07.473Z,15.93
2023-05-24T20:51:36.455Z,15.88
2023-05-24T20:54:05.839Z,15.85
2023-05-24T20:56:34.202Z,15.78
2023-05-24T20:59:02.804Z,15.76
2023-05-24T21:01:31.516Z,15.73
2023-05-24T21:04:01.551Z,15.72
2023-05-24T21:06:31.919Z,15.66
2023-05-24T21:09:02.168Z,15.62
2023-05-24T21:11:31.452Z,15.55
2023-05-24T21:14:00.173Z,15.50
2023-05-24T21:16:29.161Z,15.44
2023-05-24T21:18:57.889Z,15.38
2023-05-24T21:21:27.659Z,15.32
2023-05-24T21:23:56.718Z,15.22
2023-05-24T21:26:26.447Z,15.16
2023-05-24T21:28:55.096Z,15.07
2023-05-24T21:31:23.884Z,14.99
2023-05-24T21:33:52.605Z,14.91
2023-05-24T21:36:21.181Z,14.81
2023-05-24T21:38:51.135Z,14.76
2023-05-24T21:41:19.783Z,14.70
2023-05-24T21:43:48.429Z,14.64
2023-05-24T21:46:17.370Z,14.56
2023-05-24T21:48:46.021Z,14.49
2023-05-24T21:51:15.532Z,14.40
2023-05-24T21:53:44.219Z,14.34
2023-05-24T21:56:13.938Z,14.28
2023-05-24T21:58:42.576Z,14.20
2023-05-24T22:01:11.237Z,14.13
2023-05-24T22:03:40.030Z,14.08
2023-05-24T22:06:09.171Z,14.02
2023-05-24T22:08:37.845Z,13.96
2023-05-24T22:11:06.638Z,13.93
2023-05-24T22:13:36.394Z,13.90
2023-05-24T22:16:04.989Z,13.85
2023-05-24T22:18:34.280Z,13.83
2023-05-24T22:21:06.243Z,13.79
2023-05-24T22:23:34.888Z,13.77
2023-05-24T22:26:03.382Z,13.73
2023-05-24T22:28:51.829Z,13.73
2023-05-24T22:31:21.658Z,13.67
2023-05-24T22:33:50.845Z,13.62
2023-05-24T22:36:20.917Z,13.59
2023-05-24T22:38:49.368Z,13.54
2023-05-24T22:41:17.998Z,13.48
2023-05-24T22:43:46.661Z,13.43
2023-05-24T22:46:16.472Z,13.38
2023-05-24T22:48:45.206Z,13.33
2023-05-24T22:51:13.805Z,13.29
2023-05-24T22:53:42.507Z,13.24
2023-05-24T22:56:11.117Z,13.18
2023-05-24T22:59:08.498Z,13.18
2023-05-24T23:01:38.910Z,13.10
2023-05-24T23:04:20.511Z,13.03
2023-05-24T23:06:52.853Z,12.96
2023-05-24T23:09:29.415Z,12.91
2023-05-24T23:11:58.973Z,12.82
2023-05-24T23:14:30.378Z,12.74
2023-05-24T23:17:02.528Z,12.69
2023-05-24T23:19:32.281Z,12.64
2023-05-24T23:22:00.588Z,12.59
2023-05-24T23:24:30.266Z,12.53
2023-05-24T23:26:58.894Z,12.49
2023-05-24T23:29:27.501Z,12.45
2023-05-24T23:31:56.099Z,12.42
2023-05-24T23:34:25.867Z,12.38
2023-05-24T23:36:54.853Z,12.34
2023-05-24T23:39:23.960Z,12.32
2023-05-24T23:41:52.600Z,12.28
2023-05-24T23:44:23.602Z,12.24
2023-05-24T23:46:52.304Z,12.20
2023-05-24T23:49:21.502Z,12.16
2023-05-24T23:51:51.570Z,12.14
2023-05-24T23:54:20.209Z,12.12
2023-05-24T23:56:48.821Z,12.07
2023-05-24T23:59:17.915Z,12.06
